createdAt,value
2023-02-08T00:01:34.030Z,102202.97
2023-02-08T00:04:01.434Z,102193.16
2023-02-08T00:06:29.246Z,102204.66
2023-02-08T00:08:57.825Z,102203.97
2023-02-08T00:11:25.046Z,102199.09
2023-02-08T00:13:52.687Z,102203.91
2023-02-08T00:16:20.082Z,102209.03
2023-02-08T00:18:49.848Z,102202.00
2023-02-08T00:21:19.704Z,102212.34
2023-02-08T00:23:48.724Z,102209.38
2023-02-08T00:26:17.577Z,102218.03
2023-02-08T00:28:47.107Z,102208.97
2023-02-08T00:31:16.666Z,102204.09
2023-02-08T00:33:44.144Z,102209.91
2023-02-08T00:36:13.314Z,102212.69
2023-02-08T00:38:41.107Z,102219.44
2023-02-08T00:41:10.089Z,102224.34
2023-02-08T00:43:38.525Z,102227.19
2023-02-08T00:46:06.228Z,102231.13
2023-02-08T00:48:33.727Z,102228.47
2023-02-08T00:51:05.624Z,102227.78
2023-02-08T00:53:37.580Z,102223.56
2023-02-08T00:56:06.977Z,102230.56
2023-02-08T00:58:35.713Z,102226.59
2023-02-08T01:01:05.044Z,102219.84
2023-02-08T01:03:40.856Z,102230.63
2023-02-08T01:06:11.556Z,102220.94
2023-02-08T01:08:39.256Z,102216.09
2023-02-08T01:11:11.629Z,102210.59
2023-02-08T01:13:39.649Z,102215.38
2023-02-08T01:16:09.670Z,102211.75
2023-02-08T01:18:45.239Z,102209.94
2023-02-08T01:21:16.334Z,102204.28
2023-02-08T01:23:45.146Z,102197.09
2023-02-08T01:26:13.903Z,102202.97
2023-02-08T01:28:41.833Z,102202.50
2023-02-08T01:31:12.622Z,102202.91
2023-02-08T01:33:40.403Z,102197.13
2023-02-08T01:36:08.512Z,102213.50
2023-02-08T01:38:37.135Z,102208.00
2023-02-08T01:41:07.334Z,102201.03
2023-02-08T01:43:56.810Z,102201.44
2023-02-08T01:46:24.422Z,102203.16
2023-02-08T01:49:02.726Z,102199.56
2023-02-08T01:51:36.539Z,102201.50
2023-02-08T01:54:07.650Z,102198.28
2023-02-08T01:56:39.477Z,102206.16
2023-02-08T01:59:14.959Z,102206.44
2023-02-08T02:01:44.113Z,102203.84
2023-02-08T02:04:11.897Z,102200.38
2023-02-08T02:06:44.651Z,102195.19
2023-02-08T02:09:19.214Z,102189.53
2023-02-08T02:11:46.564Z,102187.09
2023-02-08T02:14:15.991Z,102184.72
2023-02-08T02:16:45.491Z,102182.06
2023-02-08T02:19:45.279Z,102181.47
2023-02-08T02:22:19.757Z,102184.88
2023-02-08T02:25:24.829Z,102178.72
2023-02-08T02:27:57.950Z,102159.19
2023-02-08T02:30:46.269Z,102164.59
2023-02-08T02:33:48.218Z,102165.09
2023-02-08T02:36:23.014Z,102173.84
2023-02-08T02:39:36.548Z,102175.03
2023-02-08T02:42:37.267Z,102172.31
2023-02-08T02:45:21.370Z,102180.59
2023-02-08T02:47:56.373Z,102177.00
2023-02-08T02:50:25.809Z,102186.81
2023-02-08T02:53:08.108Z,102182.81
2023-02-08T02:55:44.523Z,102177.50
2023-02-08T02:58:16.924Z,102169.06
2023-02-08T03:00:46.294Z,102157.47
2023-02-08T03:03:22.903Z,102170.28
2023-02-08T03:06:03.092Z,102167.91
2023-02-08T03:08:48.706Z,102170.72
2023-02-08T03:11:27.083Z,102171.16
2023-02-08T03:14:28.117Z,102166.47
2023-02-08T03:17:27.494Z,102164.66
2023-02-08T03:20:09.582Z,102149.81
2023-02-08T03:22:58.830Z,102160.34
2023-02-08T03:25:37.032Z,102160.69
2023-02-08T03:28:41.233Z,102158.84
2023-02-08T03:31:31.314Z,102169.44
2023-02-08T03:34:21.475Z,102165.72
2023-02-08T03:36:58.205Z,102168.66
2023-02-08T03:39:30.114Z,102169.75
2023-02-08T03:42:03.347Z,102173.81
2023-02-08T03:44:37.388Z,102170.91
2023-02-08T03:47:13.817Z,102173.34
2023-02-08T03:49:42.979Z,102179.75
2023-02-08T03:52:11.115Z,102172.31
2023-02-08T03:54:49.868Z,102182.25
2023-02-08T03:57:23.653Z,102190.97
2023-02-08T04:00:00.201Z,102181.78
2023-02-08T04:02:31.968Z,102186.97
2023-02-08T04:05:01.505Z,102184.78
2023-02-08T04:07:28.909Z,102191.91
2023-02-08T04:09:56.260Z,102189.69
2023-02-08T04:12:23.864Z,102190.19
2023-02-08T04:14:51.143Z,102199.91
2023-02-08T04:17:18.652Z,102192.94
2023-02-08T04:19:46.094Z,102200.06
2023-02-08T04:22:14.621Z,102206.88
2023-02-08T04:24:43.141Z,102210.91
2023-02-08T04:27:11.566Z,102215.84
2023-02-08T04:29:39.020Z,102212.53
2023-02-08T04:32:08.572Z,102213.00
2023-02-08T04:34:36.024Z,102203.63
2023-02-08T04:37:03.387Z,102198.78
2023-02-08T04:39:31.992Z,102202.50
2023-02-08T04:42:00.344Z,102204.13
2023-02-08T04:44:28.992Z,102198.78
2023-02-08T04:46:57.230Z,102192.06
2023-02-08T04:49:24.775Z,102197.97
2023-02-08T04:51:54.408Z,102196.84
2023-02-08T04:54:22.010Z,102197.78
2023-02-08T04:56:49.301Z,102192.78
2023-02-08T04:59:16.921Z,102200.50
2023-02-08T05:01:44.033Z,102196.31
2023-02-08T05:04:11.458Z,102188.47
2023-02-08T05:06:39.096Z,102203.78
2023-02-08T05:09:10.320Z,102207.09
2023-02-08T05:11:38.498Z,102209.56
2023-02-08T05:14:07.810Z,102217.22
2023-02-08T05:16:41.676Z,102220.47
2023-02-08T05:19:14.546Z,102226.00
2023-02-08T05:21:42.055Z,102228.66
2023-02-08T05:24:12.965Z,102221.91
2023-02-08T05:26:41.697Z,102229.50
2023-02-08T05:29:09.065Z,102232.56
2023-02-08T05:31:37.807Z,102227.28
2023-02-08T05:34:05.143Z,102228.94
2023-02-08T05:36:39.445Z,102241.72
2023-02-08T05:39:06.813Z,102237.63
2023-02-08T05:41:38.183Z,102243.47
2023-02-08T05:44:05.746Z,102245.88
2023-02-08T05:46:33.140Z,102242.97
2023-02-08T05:49:01.742Z,102237.72
2023-02-08T05:51:29.146Z,102243.72
2023-02-08T05:54:02.170Z,102257.41
2023-02-08T05:56:30.045Z,102255.03
2023-02-08T05:59:00.703Z,102263.81
2023-02-08T06:01:33.785Z,102265.69
2023-02-08T06:04:01.114Z,102264.53
2023-02-08T06:06:30.595Z,102264.38
2023-02-08T06:09:00.083Z,102254.91
2023-02-08T06:11:29.562Z,102265.16
2023-02-08T06:13:56.758Z,102269.72
2023-02-08T06:16:24.410Z,102257.56
2023-02-08T06:18:52.853Z,102259.50
2023-02-08T06:21:20.332Z,102269.72
2023-02-08T06:23:47.797Z,102265.69
2023-02-08T06:26:15.203Z,102263.81
2023-02-08T06:28:42.784Z,102268.28
2023-02-08T06:31:10.410Z,102273.59
2023-02-08T06:33:37.729Z,102272.53
2023-02-08T06:36:05.446Z,102269.28
2023-02-08T06:38:32.729Z,102272.00
2023-02-08T06:41:00.215Z,102276.53
2023-02-08T06:43:27.613Z,102278.28
2023-02-08T06:45:55.125Z,102277.34
2023-02-08T06:48:22.591Z,102275.53
2023-02-08T06:50:53.802Z,102270.34
2023-02-08T06:53:22.094Z,102276.91
2023-02-08T06:55:51.284Z,102278.69
2023-02-08T06:58:20.327Z,102275.63
2023-02-08T07:00:47.662Z,102273.84
2023-02-08T07:03:17.804Z,102276.44
2023-02-08T07:06:03.484Z,102274.56
2023-02-08T07:08:32.375Z,102269.84
2023-02-08T07:10:59.990Z,102261.28
2023-02-08T07:13:27.386Z,102265.63
2023-02-08T07:15:54.973Z,102262.44
2023-02-08T07:18:23.271Z,102261.91
2023-02-08T07:20:50.866Z,102268.19
2023-02-08T07:23:20.320Z,102264.13
2023-02-08T07:26:00.662Z,102263.06
2023-02-08T07:28:28.537Z,102261.13
2023-02-08T07:30:56.716Z,102259.72
2023-02-08T07:33:26.044Z,102264.63
2023-02-08T07:35:53.434Z,102262.09
2023-02-08T07:38:21.928Z,102266.66
2023-02-08T07:40:49.386Z,102263.97
2023-02-08T07:43:16.827Z,102266.53
2023-02-08T07:45:46.347Z,102278.13
2023-02-08T07:48:13.817Z,102282.72
2023-02-08T07:50:41.470Z,102291.63
2023-02-08T07:53:09.247Z,102289.84
2023-02-08T07:55:36.656Z,102290.69
2023-02-08T07:58:04.207Z,102286.88
2023-02-08T08:00:31.669Z,102286.56
2023-02-08T08:02:58.728Z,102295.19
2023-02-08T08:05:26.126Z,102300.38
2023-02-08T08:07:53.546Z,102297.13
2023-02-08T08:10:20.979Z,102300.81
2023-02-08T08:12:48.410Z,102304.31
2023-02-08T08:15:16.883Z,102297.34
2023-02-08T08:17:44.394Z,102304.84
2023-02-08T08:20:12.050Z,102295.94
2023-02-08T08:22:39.250Z,102302.84
2023-02-08T08:25:07.939Z,102295.94
2023-02-08T08:27:35.448Z,102292.94
2023-02-08T08:30:13.668Z,102305.28
2023-02-08T08:32:42.181Z,102301.84
2023-02-08T08:35:11.449Z,102307.16
2023-02-08T08:37:38.881Z,102301.34
2023-02-08T08:40:12.698Z,102300.81
2023-02-08T08:42:41.977Z,102291.63
2023-02-08T08:45:11.145Z,102294.44
2023-02-08T08:47:38.378Z,102294.88
2023-02-08T08:50:07.149Z,102299.53
2023-02-08T08:52:43.108Z,102302.81
2023-02-08T08:55:11.540Z,102298.44
2023-02-08T08:57:38.953Z,102304.06
2023-02-08T09:00:07.837Z,102312.81
2023-02-08T09:02:35.826Z,102312.47
2023-02-08T09:05:05.669Z,102315.03
2023-02-08T09:07:33.828Z,102320.22
2023-02-08T09:10:02.480Z,102312.69
2023-02-08T09:12:30.245Z,102312.78
2023-02-08T09:14:57.952Z,102320.47
2023-02-08T09:17:25.736Z,102317.72
2023-02-08T09:19:53.260Z,102311.28
2023-02-08T09:22:20.846Z,102312.31
2023-02-08T09:24:50.262Z,102316.00
2023-02-08T09:27:19.341Z,102316.84
2023-02-08T09:29:46.624Z,102313.69
2023-02-08T09:32:14.184Z,102309.97
2023-02-08T09:34:41.619Z,102314.75
2023-02-08T09:37:09.094Z,102308.22
2023-02-08T09:39:36.524Z,102314.72
2023-02-08T09:42:14.684Z,102311.28
2023-02-08T09:45:01.140Z,102314.69
2023-02-08T09:47:54.597Z,102308.69
2023-02-08T09:50:48.610Z,102310.22
2023-02-08T09:53:25.691Z,102317.03
2023-02-08T09:56:11.777Z,102315.78
2023-02-08T09:58:54.039Z,102320.88
2023-02-08T10:01:37.002Z,102321.81
2023-02-08T10:04:26.244Z,102325.00
2023-02-08T10:06:59.594Z,102325.00
2023-02-08T10:09:27.704Z,102323.25
2023-02-08T10:12:05.970Z,102321.63
2023-02-08T10:14:55.016Z,102337.78
2023-02-08T10:17:26.012Z,102322.69
2023-02-08T10:20:25.267Z,102333.47
2023-02-08T10:23:13.347Z,102330.56
2023-02-08T10:25:49.908Z,102332.19
2023-02-08T10:28:24.290Z,102329.22
2023-02-08T10:31:12.705Z,102321.28
2023-02-08T10:34:01.867Z,102313.66
2023-02-08T10:36:42.221Z,102311.69
2023-02-08T10:39:18.000Z,102314.78
2023-02-08T10:41:46.563Z,102313.19
2023-02-08T10:44:28.836Z,102320.13
2023-02-08T10:47:34.858Z,102317.06
2023-02-08T10:50:30.978Z,102319.75
2023-02-08T10:52:58.312Z,102319.00
2023-02-08T10:55:26.969Z,102308.31
2023-02-08T10:57:59.907Z,102303.72
2023-02-08T11:00:31.650Z,102314.34
2023-02-08T11:03:04.987Z,102303.19
2023-02-08T11:05:34.353Z,102303.31
2023-02-08T11:08:19.871Z,102297.06
2023-02-08T11:11:16.952Z,102290.59
2023-02-08T11:13:48.489Z,102297.91
2023-02-08T11:16:26.958Z,102291.00
2023-02-08T11:18:59.709Z,102283.16
2023-02-08T11:21:40.609Z,102280.06
2023-02-08T11:24:16.781Z,102278.56
2023-02-08T11:26:44.536Z,102275.00
2023-02-08T11:29:26.744Z,102272.66
2023-02-08T11:32:02.551Z,102272.16
2023-02-08T11:34:38.787Z,102262.03
2023-02-08T11:37:21.952Z,102262.06
2023-02-08T11:40:00.048Z,102264.53
2023-02-08T11:42:31.655Z,102271.34
2023-02-08T11:45:00.759Z,102253.78
2023-02-08T11:47:35.665Z,102253.94
2023-02-08T11:50:06.439Z,102251.13
2023-02-08T11:52:41.873Z,102247.31
2023-02-08T11:55:29.865Z,102236.59
2023-02-08T11:58:24.853Z,102246.81
2023-02-08T12:01:18.197Z,102239.63
2023-02-08T12:03:50.498Z,102247.38
2023-02-08T12:06:43.307Z,102250.88
2023-02-08T12:09:28.912Z,102244.72
2023-02-08T12:12:18.040Z,102246.63
2023-02-08T12:15:05.150Z,102246.81
2023-02-08T12:18:04.065Z,102234.13
2023-02-08T12:20:42.871Z,102229.25
2023-02-08T12:23:19.104Z,102233.41
2023-02-08T12:26:13.042Z,102225.41
2023-02-08T12:29:04.167Z,102212.34
2023-02-08T12:32:02.410Z,102200.91
2023-02-08T12:35:00.614Z,102196.16
2023-02-08T12:38:13.263Z,102204.72
2023-02-08T12:40:58.332Z,102208.13
2023-02-08T12:44:03.675Z,102220.25
2023-02-08T12:46:44.908Z,102217.69
2023-02-08T12:49:34.149Z,102213.72
2023-02-08T12:52:12.134Z,102210.84
2023-02-08T12:54:42.080Z,102218.44
2023-02-08T12:57:15.130Z,102217.13
2023-02-08T12:59:57.090Z,102215.47
2023-02-08T13:02:34.579Z,102207.38
2023-02-08T13:05:07.727Z,102212.16
2023-02-08T13:07:46.473Z,102205.06
2023-02-08T13:10:28.138Z,102194.78
2023-02-08T13:13:18.521Z,102185.72
2023-02-08T13:16:03.595Z,102182.53
2023-02-08T13:18:35.791Z,102178.63
2023-02-08T13:21:08.079Z,102182.31
2023-02-08T13:23:51.663Z,102179.16
2023-02-08T13:26:32.564Z,102170.56
2023-02-08T13:29:02.723Z,102167.88
2023-02-08T13:31:36.280Z,102179.59
2023-02-08T13:34:33.980Z,102170.81
2023-02-08T13:37:16.555Z,102174.66
2023-02-08T13:40:00.170Z,102176.19
2023-02-08T13:42:47.986Z,102178.00
2023-02-08T13:45:33.199Z,102176.94
2023-02-08T13:48:08.158Z,102179.03
2023-02-08T13:50:35.272Z,102189.38
2023-02-08T13:53:03.840Z,102175.84
2023-02-08T13:55:36.164Z,102168.69
2023-02-08T13:58:49.448Z,102177.03
2023-02-08T14:01:21.601Z,102176.38
2023-02-08T14:04:10.432Z,102169.97
2023-02-08T14:06:47.293Z,102190.59
2023-02-08T14:09:29.022Z,102191.56
2023-02-08T14:12:41.295Z,102184.59
2023-02-08T14:15:18.819Z,102190.69
2023-02-08T14:17:50.403Z,102175.44
2023-02-08T14:20:22.402Z,102173.47
2023-02-08T14:22:57.394Z,102160.91
2023-02-08T14:25:47.248Z,102163.22
2023-02-08T14:28:29.434Z,102157.19
2023-02-08T14:31:00.110Z,102157.97
2023-02-08T14:33:41.437Z,102164.44
2023-02-08T14:36:31.674Z,102158.19
2023-02-08T14:39:30.790Z,102158.19
2023-02-08T14:42:14.286Z,102153.50
2023-02-08T14:44:58.076Z,102148.94
2023-02-08T14:47:25.020Z,102146.09
2023-02-08T14:50:23.173Z,102150.47
2023-02-08T14:53:06.789Z,102145.81
2023-02-08T14:56:00.405Z,102155.72
2023-02-08T14:58:51.462Z,102149.41
2023-02-08T15:01:25.928Z,102133.94
2023-02-08T15:04:01.878Z,102146.03
2023-02-08T15:06:41.191Z,102152.59
2023-02-08T15:09:22.568Z,102156.69
2023-02-08T15:12:07.999Z,102148.91
2023-02-08T15:14:37.801Z,102147.72
2023-02-08T15:17:23.786Z,102136.72
2023-02-08T15:19:58.161Z,102144.22
2023-02-08T15:22:26.108Z,102148.00
2023-02-08T15:24:56.299Z,102149.84
2023-02-08T15:27:28.133Z,102155.34
2023-02-08T15:29:56.525Z,102150.03
2023-02-08T15:32:27.233Z,102153.13
2023-02-08T15:35:00.682Z,102152.56
2023-02-08T15:37:32.224Z,102152.94
2023-02-08T15:40:01.656Z,102151.50
2023-02-08T15:42:32.805Z,102153.75
2023-02-08T15:45:24.374Z,102152.78
2023-02-08T15:47:52.767Z,102161.06
2023-02-08T15:50:22.871Z,102156.88
2023-02-08T15:53:02.972Z,102164.44
2023-02-08T15:55:44.680Z,102157.34
2023-02-08T15:58:30.420Z,102170.06
2023-02-08T16:01:09.601Z,102160.25
2023-02-08T16:03:39.103Z,102162.44
2023-02-08T16:06:12.328Z,102157.50
2023-02-08T16:08:44.195Z,102156.78
2023-02-08T16:11:21.755Z,102160.13
2023-02-08T16:13:52.295Z,102163.63
2023-02-08T16:16:28.497Z,102162.59
2023-02-08T16:19:01.445Z,102157.72
2023-02-08T16:21:38.677Z,102162.97
2023-02-08T16:24:21.394Z,102162.28
2023-02-08T16:26:56.753Z,102171.78
2023-02-08T16:29:28.492Z,102167.25
2023-02-08T16:32:13.112Z,102163.88
2023-02-08T16:34:41.326Z,102170.47
2023-02-08T16:37:21.258Z,102166.00
2023-02-08T16:39:58.128Z,102175.03
2023-02-08T16:42:37.173Z,102174.84
2023-02-08T16:45:21.309Z,102176.06
2023-02-08T16:48:00.190Z,102157.94
2023-02-08T16:50:34.536Z,102161.97
2023-02-08T16:53:05.673Z,102163.06
2023-02-08T16:55:37.558Z,102161.84
2023-02-08T16:58:07.183Z,102162.19
2023-02-08T17:00:36.154Z,102166.09
2023-02-08T17:03:04.909Z,102161.66
2023-02-08T17:05:40.926Z,102164.63
2023-02-08T17:08:21.346Z,102163.50
2023-02-08T17:10:52.242Z,102168.91
2023-02-08T17:13:21.441Z,102171.19
2023-02-08T17:16:00.837Z,102172.66
2023-02-08T17:18:28.826Z,102173.09
2023-02-08T17:21:00.326Z,102181.09
2023-02-08T17:23:30.714Z,102181.84
2023-02-08T17:25:58.183Z,102179.69
2023-02-08T17:28:27.676Z,102172.44
2023-02-08T17:30:55.919Z,102175.31
2023-02-08T17:33:26.826Z,102171.59
2023-02-08T17:35:54.766Z,102165.50
2023-02-08T17:38:22.752Z,102168.63
2023-02-08T17:40:51.130Z,102176.50
2023-02-08T17:43:21.280Z,102166.28
2023-02-08T17:45:49.561Z,102172.31
2023-02-08T17:48:18.140Z,102168.47
2023-02-08T17:50:51.812Z,102175.59
2023-02-08T17:53:20.071Z,102171.09
2023-02-08T17:55:48.364Z,102174.50
2023-02-08T17:58:22.353Z,102170.91
2023-02-08T18:00:50.372Z,102175.59
2023-02-08T18:03:18.089Z,102167.63
2023-02-08T18:05:45.834Z,102176.06
2023-02-08T18:08:14.395Z,102169.34
2023-02-08T18:10:44.694Z,102169.34
2023-02-08T18:13:13.169Z,102161.97
2023-02-08T18:15:45.100Z,102171.75
2023-02-08T18:18:14.980Z,102165.53
2023-02-08T18:20:47.897Z,102170.13
2023-02-08T18:23:16.784Z,102174.41
2023-02-08T18:25:44.768Z,102174.53
2023-02-08T18:28:17.222Z,102173.38
2023-02-08T18:30:52.656Z,102168.69
2023-02-08T18:33:21.091Z,102173.22
2023-02-08T18:35:52.429Z,102179.06
2023-02-08T18:38:27.347Z,102166.09
2023-02-08T18:40:56.412Z,102160.13
2023-02-08T18:43:24.768Z,102158.78
2023-02-08T18:46:09.888Z,102160.56
2023-02-08T18:48:43.397Z,102152.34
2023-02-08T18:51:13.883Z,102157.22
2023-02-08T18:53:46.365Z,102156.44
2023-02-08T18:56:15.478Z,102154.94
2023-02-08T18:58:44.606Z,102157.72
2023-02-08T19:01:15.990Z,102159.69
2023-02-08T19:03:45.644Z,102161.13
2023-02-08T19:06:27.302Z,102156.97
2023-02-08T19:08:58.793Z,102158.59
2023-02-08T19:11:30.243Z,102163.88
2023-02-08T19:14:02.463Z,102154.94
2023-02-08T19:16:33.163Z,102153.19
2023-02-08T19:19:01.618Z,102161.94
2023-02-08T19:21:31.117Z,102161.00
2023-02-08T19:24:07.591Z,102164.91
2023-02-08T19:26:40.288Z,102163.75
2023-02-08T19:29:20.763Z,102149.81
2023-02-08T19:31:50.283Z,102144.59
2023-02-08T19:34:23.802Z,102140.06
2023-02-08T19:36:56.182Z,102139.78
2023-02-08T19:39:28.147Z,102136.34
2023-02-08T19:41:59.359Z,102144.19
2023-02-08T19:44:30.303Z,102145.69
2023-02-08T19:46:59.422Z,102144.38
2023-02-08T19:49:29.120Z,102142.44
2023-02-08T19:51:57.816Z,102144.06
2023-02-08T19:54:32.665Z,102145.28
2023-02-08T19:57:00.359Z,102143.81
2023-02-08T19:59:35.214Z,102137.88
2023-02-08T20:02:03.670Z,102146.16
2023-02-08T20:04:31.848Z,102144.69
2023-02-08T20:07:01.240Z,102133.69
2023-02-08T20:09:31.234Z,102125.44
2023-02-08T20:12:00.423Z,102124.63
2023-02-08T20:14:31.934Z,102126.38
2023-02-08T20:17:04.414Z,102115.97
2023-02-08T20:19:37.284Z,102120.41
2023-02-08T20:22:05.780Z,102116.16
2023-02-08T20:24:34.153Z,102115.97
2023-02-08T20:27:02.698Z,102113.69
2023-02-08T20:29:33.304Z,102108.63
2023-02-08T20:32:04.610Z,102105.22
2023-02-08T20:34:33.212Z,102098.09
2023-02-08T20:37:07.834Z,102097.34
2023-02-08T20:39:38.384Z,102100.84
2023-02-08T20:42:06.672Z,102090.97
2023-02-08T20:44:35.657Z,102102.63
2023-02-08T20:47:06.021Z,102095.50
2023-02-08T20:49:35.197Z,102083.69
2023-02-08T20:52:05.187Z,102091.63
2023-02-08T20:54:33.577Z,102088.69
2023-02-08T20:57:02.753Z,102088.63
2023-02-08T20:59:31.855Z,102090.28
2023-02-08T21:01:59.279Z,102087.16
2023-02-08T21:04:27.486Z,102095.66
2023-02-08T21:06:55.491Z,102091.13
2023-02-08T21:09:24.107Z,102093.63
2023-02-08T21:11:52.323Z,102092.56
2023-02-08T21:14:23.677Z,102088.97
2023-02-08T21:16:57.301Z,102091.72
2023-02-08T21:19:27.576Z,102092.09
2023-02-08T21:21:58.542Z,102089.25
2023-02-08T21:24:28.568Z,102086.56
2023-02-08T21:26:57.165Z,102091.94
2023-02-08T21:29:26.674Z,102086.97
2023-02-08T21:31:56.570Z,102080.75
2023-02-08T21:34:23.721Z,102083.94
2023-02-08T21:36:51.359Z,102074.66
2023-02-08T21:39:19.032Z,102074.84
2023-02-08T21:41:48.489Z,102075.13
2023-02-08T21:44:16.799Z,102075.06
2023-02-08T21:46:44.306Z,102073.34
2023-02-08T21:49:31.489Z,102061.97
2023-02-08T21:52:19.192Z,102064.69
2023-02-08T21:54:53.296Z,102062.66
2023-02-08T21:57:23.165Z,102060.03
2023-02-08T21:59:53.573Z,102065.47
2023-02-08T22:02:29.105Z,102071.78
2023-02-08T22:04:59.178Z,102071.25
2023-02-08T22:07:27.445Z,102061.97
2023-02-08T22:09:56.596Z,102065.31
2023-02-08T22:12:24.362Z,102052.53
2023-02-08T22:14:53.004Z,102047.28
2023-02-08T22:17:20.683Z,102048.34
2023-02-08T22:19:49.110Z,102039.28
2023-02-08T22:22:18.470Z,102028.13
2023-02-08T22:24:46.096Z,102022.97
2023-02-08T22:27:13.499Z,102027.44
2023-02-08T22:29:40.955Z,102032.97
2023-02-08T22:32:10.201Z,102024.22
2023-02-08T22:34:38.751Z,102029.41
2023-02-08T22:37:07.940Z,102029.03
2023-02-08T22:39:37.542Z,102027.63
2023-02-08T22:42:09.184Z,102027.44
2023-02-08T22:44:40.222Z,102024.59
2023-02-08T22:47:11.964Z,102023.13
2023-02-08T22:49:39.251Z,102020.31
2023-02-08T22:52:09.904Z,102020.19
2023-02-08T22:54:39.290Z,102023.66
2023-02-08T22:57:07.165Z,102018.59
2023-02-08T22:59:34.893Z,102024.41
2023-02-08T23:02:02.156Z,102025.22
2023-02-08T23:04:30.191Z,102026.13
2023-02-08T23:06:58.894Z,102031.75
2023-02-08T23:09:28.461Z,102026.09
2023-02-08T23:11:56.875Z,102028.75
2023-02-08T23:14:36.451Z,102026.34
2023-02-08T23:17:04.143Z,102021.63
2023-02-08T23:19:31.331Z,102022.25
2023-02-08T23:21:59.843Z,102023.75
2023-02-08T23:24:28.599Z,102022.00
2023-02-08T23:26:56.786Z,102019.28
2023-02-08T23:29:24.350Z,102013.53
2023-02-08T23:31:51.941Z,102010.81
2023-02-08T23:34:20.280Z,102004.59
2023-02-08T23:36:48.987Z,101999.03
2023-02-08T23:39:22.435Z,101992.28
2023-02-08T23:41:49.971Z,101990.41
2023-02-08T23:44:17.465Z,101990.41
2023-02-08T23:46:45.048Z,101984.34
2023-02-08T23:49:13.302Z,101979.38
2023-02-08T23:51:40.743Z,101971.69
2023-02-08T23:54:09.338Z,101970.72
2023-02-08T23:56:36.760Z,101968.47
2023-02-08T23:59:11.864Z,101959.81
